Time;durP1;ratioP1;P1;durP2;ratioP2;P2;SDS_P1;SDS_P2;PMS_P1;PMS_P2;Temp;Humidity;BMP_temperature;BMP_pressure;BME280_temperature;BME280_humidity;BME280_pressure;Samples;Min_cycle;Max_cycle;Signal;HPM_P1;HPM_P2
2022/06/21 00:01:18;;;;;;;2.10;0.37;;;14.40;99.90;;;;;;5047370;28;20183;-82
2022/06/21 00:03:45;;;;;;;0.57;0.57;;;14.30;99.90;;;;;;5049413;28;20729;-82
2022/06/21 00:06:18;;;;;;;0.77;0.43;;;14.30;99.90;;;;;;5046398;28;20191;-82
2022/06/21 00:08:44;;;;;;;0.60;0.60;;;14.50;99.90;;;;;;5047452;28;20682;-82
2022/06/21 00:11:26;;;;;;;0.30;0.30;;;14.50;99.90;;;;;;5042289;28;20223;-82
2022/06/21 00:13:52;;;;;;;5.57;0.50;;;14.50;99.90;;;;;;5046864;28;20276;-82
2022/06/21 00:16:19;;;;;;;0.50;0.50;;;14.20;99.90;;;;;;5048674;28;20241;-82
2022/06/21 00:18:47;;;;;;;0.23;0.23;;;14.00;99.90;;;;;;5046526;28;20611;-82
2022/06/21 00:21:30;;;;;;;0.47;0.47;;;13.90;99.90;;;;;;5045033;28;20184;-82
2022/06/21 00:23:56;;;;;;;0.60;0.60;;;13.90;99.90;;;;;;5047346;28;20206;-82
2022/06/21 00:26:24;;;;;;;0.50;0.50;;;13.70;99.90;;;;;;5046702;28;20191;-81
2022/06/21 00:28:49;;;;;;;0.70;0.60;;;13.70;99.90;;;;;;5043678;28;20597;-82
2022/06/21 00:31:19;;;;;;;0.30;0.30;;;13.60;99.90;;;;;;5046940;28;20199;-82
2022/06/21 00:33:45;;;;;;;0.30;0.30;;;13.50;99.90;;;;;;5048159;28;20541;-82
2022/06/21 00:36:21;;;;;;;0.40;0.40;;;13.70;99.90;;;;;;5048436;28;20324;-82
2022/06/21 00:38:47;;;;;;;0.30;0.30;;;13.70;99.90;;;;;;5046147;28;20173;-82
2022/06/21 00:41:16;;;;;;;0.30;0.30;;;13.80;99.90;;;;;;5042287;28;22284;-82
2022/06/21 00:43:48;;;;;;;0.37;0.37;;;13.90;99.90;;;;;;5044583;28;20212;-82
2022/06/21 00:46:25;;;;;;;0.93;0.93;;;13.80;99.90;;;;;;5048559;28;21048;-82
2022/06/21 00:48:53;;;;;;;0.80;0.70;;;13.70;99.90;;;;;;5047817;28;20192;-82
2022/06/21 00:51:24;;;;;;;0.50;0.47;;;13.60;99.90;;;;;;5049106;28;20185;-82
2022/06/21 00:53:56;;;;;;;0.60;0.60;;;13.50;99.90;;;;;;5045081;28;20188;-82
2022/06/21 00:56:32;;;;;;;0.40;0.40;;;13.60;99.90;;;;;;5046069;28;20204;-82
2022/06/21 00:59:14;;;;;;;0.63;0.63;;;13.70;99.90;;;;;;5041448;28;20912;-82
2022/06/21 01:01:39;;;;;;;0.30;0.30;;;13.50;99.90;;;;;;5046446;28;20183;-82
2022/06/21 01:04:15;;;;;;;0.47;0.47;;;13.40;99.90;;;;;;5047336;28;20616;-82
2022/06/21 01:06:45;;;;;;;0.20;0.20;;;13.50;99.90;;;;;;5043603;28;20205;-82
2022/06/21 01:09:15;;;;;;;0.50;0.50;;;13.50;99.90;;;;;;5044970;28;20194;-82
2022/06/21 01:11:47;;;;;;;0.93;0.30;;;13.50;99.90;;;;;;5043517;28;20180;-82
2022/06/21 01:14:17;;;;;;;0.40;0.40;;;13.40;99.90;;;;;;5046569;28;20191;-83
2022/06/21 01:16:43;;;;;;;0.80;0.80;;;13.00;99.90;;;;;;5045877;28;20306;-82
2022/06/21 01:19:29;;;;;;;0.40;0.40;;;12.80;99.90;;;;;;5044484;28;20253;-81
2022/06/21 01:22:01;;;;;;;0.20;0.20;;;12.70;99.90;;;;;;5046097;28;20177;-82
2022/06/21 01:24:54;;;;;;;0.60;0.60;;;12.90;99.90;;;;;;5045435;28;20195;-81
2022/06/21 01:27:20;;;;;;;0.50;0.50;;;13.00;99.90;;;;;;5047308;28;20674;-82
2022/06/21 01:29:46;;;;;;;0.47;0.47;;;13.20;99.90;;;;;;5047253;28;20268;-82
2022/06/21 01:32:12;;;;;;;0.43;0.43;;;13.20;99.90;;;;;;5041194;28;20195;-82
2022/06/21 01:34:39;;;;;;;1.03;0.40;;;13.30;99.90;;;;;;5040168;28;20628;-82
2022/06/21 01:37:07;;;;;;;0.40;0.40;;;13.10;99.90;;;;;;5044442;28;21187;-82
2022/06/21 01:39:48;;;;;;;0.50;0.50;;;13.20;99.90;;;;;;5046842;28;20311;-82
2022/06/21 01:42:32;;;;;;;0.40;0.40;;;13.30;99.90;;;;;;5062454;28;20205;-82
2022/06/21 01:45:02;;;;;;;0.27;0.27;;;13.40;99.90;;;;;;5048145;28;20228;-82
2022/06/21 01:47:37;;;;;;;0.30;0.30;;;13.40;99.90;;;;;;5045578;28;20669;-82
2022/06/21 01:50:05;;;;;;;0.40;0.40;;;13.40;99.90;;;;;;5044971;28;20183;-82
2022/06/21 01:52:35;;;;;;;0.60;0.40;;;13.50;99.90;;;;;;5044550;28;20275;-82
2022/06/21 01:55:13;;;;;;;0.20;0.20;;;13.50;99.90;;;;;;5045613;28;20213;-82
2022/06/21 01:57:39;;;;;;;0.50;0.50;;;13.50;99.90;;;;;;5045207;28;20704;-82
2022/06/21 02:00:06;;;;;;;0.47;0.47;;;13.60;99.90;;;;;;5043835;28;20304;-82
2022/06/21 02:02:38;;;;;;;0.23;0.23;;;13.70;99.90;;;;;;5046675;28;21023;-82
2022/06/21 02:05:13;;;;;;;0.63;0.60;;;13.70;99.90;;;;;;5043853;28;21138;-82
2022/06/21 02:07:47;;;;;;;0.33;0.33;;;13.70;99.90;;;;;;5045098;28;20214;-81
2022/06/21 02:10:31;;;;;;;0.40;0.40;;;13.70;99.90;;;;;;5040932;28;20274;-82
2022/06/21 02:13:20;;;;;;;0.20;0.20;;;13.70;99.90;;;;;;5046380;28;20226;-82
2022/06/21 02:16:20;;;;;;;0.67;0.53;;;13.60;99.90;;;;;;5038457;28;20204;-81
2022/06/21 02:18:51;;;;;;;0.50;0.37;;;13.40;99.90;;;;;;5044098;28;20957;-83
2022/06/21 02:21:24;;;;;;;0.20;0.20;;;13.20;99.90;;;;;;5038521;28;20180;-82
2022/06/21 02:23:54;;;;;;;0.93;0.60;;;12.90;99.90;;;;;;5040702;28;20535;-82
2022/06/21 02:26:22;;;;;;;0.60;0.50;;;12.60;99.90;;;;;;5043557;28;20236;-82
2022/06/21 02:28:48;;;;;;;0.47;0.47;;;12.30;99.90;;;;;;5045314;28;20230;-82
2022/06/21 02:31:14;;;;;;;0.43;0.43;;;12.30;99.90;;;;;;5043158;28;20232;-81
2022/06/21 02:33:41;;;;;;;0.40;0.40;;;12.30;99.90;;;;;;5042661;28;20186;-82
2022/06/21 02:36:15;;;;;;;0.77;0.40;;;12.40;99.90;;;;;;5060724;28;20206;-82
2022/06/21 02:38:49;;;;;;;0.23;0.23;;;12.40;99.90;;;;;;5045960;28;20178;-82
2022/06/21 02:41:22;;;;;;;0.30;0.30;;;12.60;99.90;;;;;;5045269;28;20195;-83
2022/06/21 02:44:20;;;;;;;0.30;0.30;;;12.70;99.90;;;;;;5044038;28;20275;-82
2022/06/21 02:46:51;;;;;;;0.53;0.53;;;12.70;99.90;;;;;;5031701;28;20206;-82
2022/06/21 02:49:22;;;;;;;0.40;0.40;;;12.50;99.90;;;;;;5045103;28;20174;-82
2022/06/21 02:51:53;;;;;;;0.97;0.77;;;12.40;99.90;;;;;;5045040;28;20722;-82
2022/06/21 02:54:35;;;;;;;0.37;0.37;;;12.40;99.90;;;;;;5045630;28;20183;-82
2022/06/21 02:57:28;;;;;;;0.30;0.23;;;12.40;99.90;;;;;;5044106;28;20301;-82
2022/06/21 02:59:56;;;;;;;0.23;0.23;;;12.40;99.90;;;;;;5033271;28;20203;-82
2022/06/21 03:02:25;;;;;;;6.03;0.63;;;12.40;99.90;;;;;;5044728;28;20220;-82
2022/06/21 03:04:51;;;;;;;0.30;0.30;;;12.20;99.90;;;;;;5042315;28;20257;-81
2022/06/21 03:07:27;;;;;;;0.30;0.30;;;12.10;99.90;;;;;;5044915;28;20210;-82
2022/06/21 03:09:53;;;;;;;0.30;0.30;;;12.00;99.90;;;;;;5043319;28;20733;-81
2022/06/21 03:12:24;;;;;;;1.53;0.77;;;12.00;99.90;;;;;;5037764;28;20281;-82
2022/06/21 03:14:53;;;;;;;0.40;0.40;;;12.10;99.90;;;;;;5044357;28;20206;-81
2022/06/21 03:17:24;;;;;;;0.20;0.20;;;12.20;99.90;;;;;;5039415;28;20218;-82
2022/06/21 03:19:51;;;;;;;0.87;0.70;;;12.30;99.90;;;;;;5042634;28;20181;-82
2022/06/21 03:22:20;;;;;;;0.40;0.40;;;12.20;99.90;;;;;;5044801;28;20190;-82
2022/06/21 03:24:50;;;;;;;1.20;0.63;;;12.10;99.90;;;;;;5043375;28;20619;-81
2022/06/21 03:27:47;;;;;;;0.57;0.53;;;12.30;99.90;;;;;;5040831;28;20206;-82
2022/06/21 03:30:14;;;;;;;0.40;0.40;;;12.30;99.90;;;;;;5045453;28;20203;-82
2022/06/21 03:32:40;;;;;;;0.37;0.37;;;12.00;99.90;;;;;;5042025;28;20182;-82
2022/06/21 03:35:06;;;;;;;0.23;0.23;;;11.80;99.90;;;;;;5043197;28;20211;-82
2022/06/21 03:37:36;;;;;;;2.87;0.50;;;12.10;99.90;;;;;;5043387;28;20201;-82
2022/06/21 03:42:50;;;;;;;0.30;0.30;;;12.90;99.90;;;;;;5044525;28;21348;-82
2022/06/21 03:45:34;;;;;;;0.20;0.20;;;13.30;99.90;;;;;;5041663;28;20822;-82
2022/06/21 03:48:17;;;;;;;1.80;0.60;;;14.40;99.90;;;;;;5044265;28;20253;-82
2022/06/21 03:50:56;;;;;;;0.83;0.47;;;15.30;99.90;;;;;;5042247;28;20185;-82
2022/06/21 03:53:35;;;;;;;0.43;0.43;;;15.70;99.90;;;;;;5041930;28;20568;-81
2022/06/21 03:56:16;;;;;;;0.30;0.23;;;15.60;99.90;;;;;;5041892;28;20204;-82
2022/06/21 03:59:00;;;;;;;0.50;0.50;;;16.60;99.90;;;;;;5044249;28;20273;-82
2022/06/21 04:02:00;;;;;;;0.93;0.80;;;16.80;99.90;;;;;;5041657;28;20266;-82
2022/06/21 04:04:39;;;;;;;1.00;0.70;;;16.60;99.90;;;;;;5044158;28;20216;-82
2022/06/21 04:07:30;;;;;;;0.73;0.50;;;16.30;99.90;;;;;;5037653;28;20211;-82
2022/06/21 04:10:03;;;;;;;2.00;0.40;;;16.60;99.90;;;;;;5041964;28;20191;-82
2022/06/21 04:12:34;;;;;;;0.30;0.30;;;17.20;99.90;;;;;;5040470;28;20237;-82
2022/06/21 04:15:03;;;;;;;0.70;0.50;;;17.50;99.90;;;;;;5036085;28;20216;-82
2022/06/21 04:17:41;;;;;;;0.67;0.50;;;17.30;99.90;;;;;;5041298;28;20211;-81
2022/06/21 04:20:22;;;;;;;0.30;0.30;;;17.60;99.90;;;;;;5041926;28;20198;-81
2022/06/21 04:23:00;;;;;;;0.50;0.50;;;17.60;99.90;;;;;;5041573;28;20595;-82
2022/06/21 04:25:32;;;;;;;0.63;0.63;;;18.20;99.90;;;;;;5041076;28;20193;-81
2022/06/21 04:28:04;;;;;;;0.50;0.50;;;18.30;99.90;;;;;;5043922;28;20218;-82
2022/06/21 04:30:43;;;;;;;0.80;0.80;;;17.80;99.90;;;;;;5042116;28;20201;-82
2022/06/21 04:33:15;;;;;;;0.20;0.20;;;17.10;99.90;;;;;;5039333;28;20193;-82
2022/06/21 04:35:49;;;;;;;0.43;0.43;;;16.90;99.90;;;;;;5037568;28;20329;-82
2022/06/21 04:38:22;;;;;;;0.13;0.13;;;16.50;99.90;;;;;;5037888;28;20223;-82
2022/06/21 04:41:45;;;;;;;0.50;0.50;;;16.10;99.90;;;;;;5043868;28;20180;-81
2022/06/21 04:44:34;;;;;;;0.57;0.50;;;16.10;99.90;;;;;;4997396;28;20194;-82
2022/06/21 04:47:15;;;;;;;0.40;0.40;;;16.50;99.90;;;;;;5017747;28;20469;-83
2022/06/21 04:49:54;;;;;;;0.30;0.30;;;16.30;99.90;;;;;;5043230;28;20255;-83
2022/06/21 04:52:27;;;;;;;0.23;0.23;;;16.00;99.90;;;;;;5047406;28;20192;-82
2022/06/21 04:54:53;;;;;;;1.87;1.07;;;15.80;99.90;;;;;;5039240;28;20207;-82
2022/06/21 04:57:25;;;;;;;0.47;0.33;;;15.80;99.90;;;;;;5046691;28;20223;-82
2022/06/21 04:59:54;;;;;;;0.67;0.33;;;15.50;99.90;;;;;;5046060;28;20188;-82
2022/06/21 05:02:27;;;;;;;0.30;0.30;;;15.50;99.90;;;;;;5038557;28;20258;-82
2022/06/21 05:05:17;;;;;;;0.73;0.43;;;15.20;99.90;;;;;;5047168;28;20206;-82
2022/06/21 05:07:50;;;;;;;0.73;0.60;;;14.70;99.90;;;;;;5045409;28;20236;-81
2022/06/21 05:10:26;;;;;;;0.60;0.60;;;14.50;99.90;;;;;;5047051;28;20184;-82
2022/06/21 05:12:54;;;;;;;0.30;0.20;;;14.50;99.90;;;;;;5046632;28;20184;-81
2022/06/21 05:15:40;;;;;;;0.20;0.20;;;14.80;99.90;;;;;;5041376;28;20240;-81
2022/06/21 05:18:40;;;;;;;0.10;0.10;;;15.30;99.90;;;;;;5042566;28;20207;-81
2022/06/21 05:21:14;;;;;;;0.30;0.30;;;15.70;99.90;;;;;;5046403;28;20897;-81
2022/06/21 05:23:40;;;;;;;0.40;0.40;;;15.90;99.90;;;;;;5044286;28;20196;-81
2022/06/21 05:26:20;;;;;;;0.30;0.30;;;15.90;99.90;;;;;;5062819;28;20257;-81
2022/06/21 05:28:52;;;;;;;0.40;0.40;;;15.90;99.90;;;;;;5040875;28;20297;-81
2022/06/21 05:31:23;;;;;;;0.30;0.20;;;16.20;99.90;;;;;;5044952;28;20216;-81
2022/06/21 05:33:53;;;;;;;0.60;0.60;;;16.50;99.90;;;;;;5040999;28;20191;-81
2022/06/21 05:36:30;;;;;;;0.60;0.60;;;16.40;99.90;;;;;;5043672;28;21048;-80
2022/06/21 05:38:59;;;;;;;0.53;0.53;;;15.90;99.90;;;;;;5044265;28;20545;-81
2022/06/21 05:41:29;;;;;;;0.33;0.33;;;15.80;99.90;;;;;;5045818;28;20188;-80
2022/06/21 05:44:03;;;;;;;0.40;0.40;;;16.10;99.90;;;;;;5041435;28;20188;-81
2022/06/21 05:46:32;;;;;;;0.40;0.40;;;16.60;99.90;;;;;;5045388;28;20213;-82
2022/06/21 05:48:59;;;;;;;0.30;0.30;;;17.00;99.90;;;;;;5043103;28;20204;-82
2022/06/21 05:51:31;;;;;;;0.33;0.33;;;16.90;99.90;;;;;;5044607;28;20243;-82
2022/06/21 05:54:10;;;;;;;0.50;0.47;;;17.20;99.90;;;;;;5043867;28;20293;-82
2022/06/21 05:56:37;;;;;;;0.60;0.37;;;17.30;99.90;;;;;;5045612;28;20323;-82
2022/06/21 05:59:07;;;;;;;0.63;0.57;;;17.10;99.90;;;;;;5047457;28;20495;-81
2022/06/21 06:01:54;;;;;;;0.57;0.53;;;16.40;99.90;;;;;;5044347;28;21094;-81
2022/06/21 06:04:31;;;;;;;0.77;0.40;;;16.10;99.90;;;;;;5044099;28;20188;-82
2022/06/21 06:06:58;;;;;;;0.40;0.40;;;16.30;99.90;;;;;;5045152;28;20209;-83
2022/06/21 06:09:32;;;;;;;0.40;0.40;;;16.50;99.90;;;;;;5044937;28;20205;-82
2022/06/21 06:12:21;;;;;;;0.53;0.53;;;16.70;99.90;;;;;;5044250;28;20193;-82
2022/06/21 06:14:52;;;;;;;0.43;0.43;;;16.90;99.90;;;;;;5044248;28;20208;-82
2022/06/21 06:17:28;;;;;;;1.20;0.50;;;16.70;99.90;;;;;;5044849;28;20209;-82
2022/06/21 06:20:20;;;;;;;6.20;0.60;;;16.60;99.90;;;;;;5045880;28;20215;-82
2022/06/21 06:22:56;;;;;;;0.80;0.80;;;16.60;99.90;;;;;;5043068;28;20247;-82
2022/06/21 06:25:32;;;;;;;0.40;0.40;;;16.60;99.90;;;;;;5046390;28;20185;-81
2022/06/21 06:28:21;;;;;;;0.90;0.70;;;16.70;99.90;;;;;;5045605;28;20216;-82
2022/06/21 06:31:10;;;;;;;0.57;0.57;;;16.70;99.90;;;;;;5045053;28;20591;-82
2022/06/21 06:33:49;;;;;;;0.60;0.60;;;16.70;99.90;;;;;;5045599;28;20190;-81
2022/06/21 06:36:17;;;;;;;3.23;1.13;;;16.60;99.90;;;;;;5046509;28;20224;-81
2022/06/21 06:38:44;;;;;;;0.60;0.60;;;16.80;99.90;;;;;;5046868;28;20635;-82
2022/06/21 06:41:41;;;;;;;0.50;0.50;;;17.30;99.90;;;;;;5044631;28;20285;-81
2022/06/21 06:44:14;;;;;;;1.47;1.27;;;17.50;99.90;;;;;;5037675;28;20194;-82
2022/06/21 06:46:50;;;;;;;2.67;0.90;;;17.60;99.90;;;;;;5046882;28;20295;-81
2022/06/21 06:49:54;;;;;;;0.67;0.63;;;17.90;99.90;;;;;;5042498;28;20197;-81
2022/06/21 06:52:31;;;;;;;2.70;0.90;;;17.90;99.90;;;;;;5044798;28;20205;-81
2022/06/21 06:55:23;;;;;;;0.90;0.90;;;17.80;99.90;;;;;;5043562;28;20201;-82
2022/06/21 06:57:57;;;;;;;0.50;0.50;;;18.20;99.90;;;;;;5045228;28;20259;-82
2022/06/21 07:00:32;;;;;;;0.57;0.57;;;18.60;99.90;;;;;;5042412;28;20243;-81
2022/06/21 07:03:12;;;;;;;1.17;0.80;;;18.60;99.90;;;;;;5045420;28;20569;-82
2022/06/21 07:05:43;;;;;;;1.23;1.03;;;18.10;99.90;;;;;;5050293;28;20776;-82
2022/06/21 07:08:24;;;;;;;1.20;1.07;;;18.00;99.90;;;;;;5043308;28;20213;-82
2022/06/21 07:10:52;;;;;;;0.90;0.90;;;18.10;99.90;;;;;;5039815;28;20193;-82
2022/06/21 07:13:19;;;;;;;2.43;1.13;;;18.30;99.90;;;;;;5046754;28;20259;-82
2022/06/21 07:15:47;;;;;;;1.97;1.77;;;17.80;99.90;;;;;;5042616;28;20216;-82
2022/06/21 07:18:17;;;;;;;0.70;0.53;;;17.90;99.90;;;;;;5042448;28;20266;-82
2022/06/21 07:20:45;;;;;;;2.33;1.50;;;18.40;99.90;;;;;;5047033;28;20220;-82
2022/06/21 07:23:19;;;;;;;1.07;1.00;;;19.00;99.90;;;;;;5046859;28;20615;-82
2022/06/21 07:25:58;;;;;;;0.40;0.40;;;19.50;99.90;;;;;;5045429;28;20194;-82
2022/06/21 07:28:57;;;;;;;0.70;0.70;;;19.60;99.90;;;;;;5046225;28;20213;-82
2022/06/21 07:31:31;;;;;;;1.00;1.00;;;19.90;99.90;;;;;;5037462;28;21269;-82
2022/06/21 07:34:07;;;;;;;0.67;0.67;;;19.30;99.90;;;;;;5045645;28;20662;-82
2022/06/21 07:36:49;;;;;;;1.57;1.17;;;19.60;99.90;;;;;;5047633;28;20245;-82
2022/06/21 07:39:57;;;;;;;1.20;0.90;;;19.10;99.90;;;;;;5048333;28;20262;-82
2022/06/21 07:42:35;;;;;;;0.70;0.70;;;19.40;99.90;;;;;;5047333;28;20654;-82
2022/06/21 07:45:04;;;;;;;0.63;0.63;;;19.80;99.90;;;;;;5046940;28;20241;-82
2022/06/21 07:47:59;;;;;;;1.47;0.97;;;19.40;99.90;;;;;;5045320;28;20222;-82
2022/06/21 07:50:46;;;;;;;1.20;1.13;;;19.70;99.90;;;;;;5043495;28;20239;-82
2022/06/21 07:53:19;;;;;;;0.73;0.73;;;20.00;99.90;;;;;;5042796;28;20197;-82
2022/06/21 07:55:56;;;;;;;2.90;1.30;;;19.80;99.90;;;;;;5043446;28;20204;-82
2022/06/21 07:58:37;;;;;;;2.33;1.23;;;19.20;99.90;;;;;;5043496;28;20213;-82
2022/06/21 08:07:20;;;;;;;1.07;1.03;;;18.60;99.90;;;;;;5043927;28;20221;-82
2022/06/21 08:09:54;;;;;;;1.97;1.20;;;19.40;99.90;;;;;;5043792;28;20189;-82
2022/06/21 08:12:20;;;;;;;0.73;0.70;;;19.60;99.90;;;;;;5043233;28;20596;-82
2022/06/21 08:14:46;;;;;;;0.47;0.40;;;19.30;99.90;;;;;;5042079;28;20185;-82
2022/06/21 08:17:21;;;;;;;1.10;1.03;;;20.00;99.90;;;;;;5042731;28;20202;-82
2022/06/21 08:19:52;;;;;;;0.93;0.93;;;19.50;99.90;;;;;;5042538;28;20189;-82
2022/06/21 08:22:23;;;;;;;0.80;0.80;;;19.80;99.90;;;;;;5047317;28;20684;-82
2022/06/21 08:25:07;;;;;;;1.63;0.87;;;19.80;99.90;;;;;;5044050;28;20653;-82
2022/06/21 08:27:50;;;;;;;0.73;0.73;;;19.50;99.90;;;;;;5046393;28;20211;-81
2022/06/21 08:30:52;;;;;;;1.30;1.20;;;19.40;99.90;;;;;;5045938;28;20752;-81
2022/06/21 08:33:32;;;;;;;0.83;0.83;;;19.50;99.90;;;;;;5035993;28;20693;-82
2022/06/21 08:36:03;;;;;;;1.30;0.73;;;19.40;99.90;;;;;;5044060;28;20286;-83
2022/06/21 08:38:58;;;;;;;0.73;0.50;;;19.60;99.90;;;;;;5045801;28;20214;-81
2022/06/21 08:41:55;;;;;;;0.57;0.57;;;19.50;99.90;;;;;;5045418;28;20200;-81
2022/06/21 08:44:38;;;;;;;0.60;0.60;;;19.60;99.90;;;;;;5045047;28;20186;-82
2022/06/21 08:47:04;;;;;;;1.10;0.60;;;19.70;99.90;;;;;;5045423;28;20624;-82
2022/06/21 08:49:54;;;;;;;0.40;0.40;;;19.90;99.90;;;;;;5044907;28;20192;-81
2022/06/21 08:52:31;;;;;;;1.57;1.47;;;20.70;99.90;;;;;;5046403;28;20188;-81
2022/06/21 08:55:31;;;;;;;0.43;0.43;;;20.90;99.90;;;;;;5043557;28;20222;-82
2022/06/21 08:58:19;;;;;;;0.43;0.43;;;20.80;99.90;;;;;;5037045;28;20260;-82
2022/06/21 09:01:14;;;;;;;0.60;0.60;;;20.40;99.90;;;;;;5045146;28;20280;-83
2022/06/21 09:04:24;;;;;;;0.60;0.40;;;20.50;99.90;;;;;;5020592;28;20189;-85
2022/06/21 09:06:52;;;;;;;0.70;0.70;;;20.90;99.90;;;;;;5040877;28;20214;-84
2022/06/21 09:10:05;;;;;;;0.77;0.77;;;21.70;99.90;;;;;;5041132;28;20190;-82
2022/06/21 09:12:44;;;;;;;0.50;0.50;;;21.80;99.90;;;;;;5032529;28;20181;-82
2022/06/21 09:15:27;;;;;;;0.97;0.80;;;21.20;99.90;;;;;;5033711;28;20214;-82
2022/06/21 09:18:05;;;;;;;0.60;0.60;;;21.40;99.90;;;;;;5041280;28;21122;-84
2022/06/21 09:20:38;;;;;;;0.93;0.73;;;21.50;99.90;;;;;;5043942;28;20174;-82
2022/06/21 09:23:17;;;;;;;0.40;0.40;;;21.70;99.90;;;;;;5045083;28;20178;-83
2022/06/21 09:25:51;;;;;;;0.60;0.60;;;21.70;99.90;;;;;;5046368;28;20182;-83
2022/06/21 09:28:23;;;;;;;0.80;0.80;;;21.50;99.90;;;;;;5045262;28;20220;-82
2022/06/21 09:30:58;;;;;;;0.70;0.70;;;21.20;99.90;;;;;;5044744;28;20205;-83
2022/06/21 09:33:39;;;;;;;0.83;0.70;;;21.00;99.90;;;;;;5041320;28;20177;-82
2022/06/21 09:36:09;;;;;;;3.20;1.43;;;20.90;99.90;;;;;;5041708;28;20213;-82
2022/06/21 09:39:11;;;;;;;1.27;0.90;;;21.50;99.90;;;;;;5044474;28;20185;-82
2022/06/21 09:42:02;;;;;;;2.13;0.80;;;21.70;99.90;;;;;;5043985;28;20186;-83
2022/06/21 09:44:46;;;;;;;0.77;0.77;;;21.60;99.90;;;;;;5045000;28;20189;-82
2022/06/21 09:47:33;;;;;;;0.50;0.50;;;21.70;99.90;;;;;;5045158;28;20241;-82
2022/06/21 09:50:07;;;;;;;2.00;0.63;;;21.90;99.90;;;;;;5044206;28;20174;-83
2022/06/21 09:52:46;;;;;;;2.13;0.70;;;22.70;99.90;;;;;;5043873;28;20925;-82
2022/06/21 09:55:24;;;;;;;1.07;0.80;;;23.30;99.90;;;;;;5045328;28;20206;-82
2022/06/21 09:58:09;;;;;;;0.70;0.70;;;23.00;99.90;;;;;;5044589;28;20205;-83
2022/06/21 10:00:45;;;;;;;0.63;0.63;;;22.40;99.90;;;;;;5044411;28;20184;-82
2022/06/21 10:03:30;;;;;;;0.53;0.53;;;21.80;99.90;;;;;;5041069;28;20182;-83
2022/06/21 10:06:18;;;;;;;1.10;0.60;;;21.90;99.90;;;;;;5036891;28;20182;-82
2022/06/21 10:09:02;;;;;;;1.07;0.67;;;22.60;99.90;;;;;;5044523;28;20185;-83
2022/06/21 10:11:50;;;;;;;0.50;0.50;;;22.60;99.90;;;;;;5060286;28;20200;-82
2022/06/21 10:14:24;;;;;;;0.50;0.50;;;22.70;99.90;;;;;;5058629;28;20201;-83
2022/06/21 10:17:13;;;;;;;0.67;0.67;;;22.60;99.90;;;;;;5041718;28;20215;-83
2022/06/21 10:19:51;;;;;;;0.60;0.60;;;23.00;99.90;;;;;;5042901;28;20289;-83
2022/06/21 10:22:31;;;;;;;0.60;0.60;;;23.10;99.90;;;;;;5042354;28;20181;-82
2022/06/21 10:25:44;;;;;;;0.60;0.60;;;23.00;99.90;;;;;;5043899;28;20181;-83
2022/06/21 10:28:31;;;;;;;0.50;0.50;;;22.80;99.90;;;;;;5019431;28;20298;-82
2022/06/21 10:31:28;;;;;;;0.47;0.47;;;22.90;99.90;;;;;;5057763;28;20182;-83
2022/06/21 10:34:09;;;;;;;1.60;1.50;;;22.70;99.90;;;;;;5039800;28;20182;-83
2022/06/21 10:36:52;;;;;;;0.60;0.60;;;22.40;99.90;;;;;;5041723;28;20709;-83
2022/06/21 10:39:39;;;;;;;0.60;0.60;;;22.50;99.90;;;;;;5045906;28;20297;-83
2022/06/21 10:42:46;;;;;;;1.30;0.70;;;22.60;99.90;;;;;;5043249;28;20218;-83
2022/06/21 10:45:41;;;;;;;0.77;0.50;;;22.10;99.90;;;;;;5041909;28;20190;-83
2022/06/21 10:48:45;;;;;;;0.60;0.60;;;22.00;99.90;;;;;;5043762;28;20304;-82
2022/06/21 10:51:17;;;;;;;0.40;0.40;;;22.00;99.90;;;;;;5043815;28;20214;-83
2022/06/21 10:54:05;;;;;;;1.90;0.73;;;22.00;99.90;;;;;;5040077;28;20276;-82
2022/06/21 11:02:44;;;;;;;0.97;0.97;;;22.30;99.90;;;;;;5041037;28;20207;-82
2022/06/21 11:05:34;;;;;;;2.43;0.83;;;22.30;99.90;;;;;;5043938;28;20193;-83
2022/06/21 11:08:12;;;;;;;0.53;0.53;;;22.50;99.90;;;;;;5044234;28;20216;-82
2022/06/21 11:10:57;;;;;;;0.60;0.60;;;22.70;99.90;;;;;;5041589;28;20190;-83
2022/06/21 11:13:36;;;;;;;0.30;0.30;;;22.80;99.90;;;;;;5042113;28;20201;-83
2022/06/21 11:16:12;;;;;;;1.40;0.77;;;23.60;99.90;;;;;;5041949;28;20201;-83
2022/06/21 11:18:58;;;;;;;0.47;0.47;;;23.70;99.90;;;;;;5042231;28;20457;-83
2022/06/21 11:21:43;;;;;;;1.80;0.87;;;24.00;99.90;;;;;;5042216;28;20228;-83
2022/06/21 11:24:30;;;;;;;0.50;0.50;;;23.80;99.90;;;;;;5044945;28;20185;-83
2022/06/21 11:27:29;;;;;;;0.77;0.77;;;23.90;99.90;;;;;;5044393;28;20611;-83
2022/06/21 11:30:13;;;;;;;1.33;0.77;;;24.50;99.90;;;;;;5044870;28;20201;-83
2022/06/21 11:32:51;;;;;;;0.40;0.40;;;24.20;99.90;;;;;;5042863;28;20186;-83
2022/06/21 11:35:41;;;;;;;2.13;0.73;;;24.40;99.90;;;;;;5043059;28;20332;-82
2022/06/21 11:38:21;;;;;;;1.23;0.97;;;24.30;99.90;;;;;;5043601;28;20212;-82
2022/06/21 11:41:12;;;;;;;1.27;0.63;;;24.60;99.90;;;;;;5043836;28;20647;-83
2022/06/21 11:43:47;;;;;;;0.23;0.23;;;24.30;99.90;;;;;;5044973;28;20547;-83
2022/06/21 11:46:40;;;;;;;0.80;0.80;;;24.60;99.90;;;;;;5061509;28;20667;-82
2022/06/21 11:49:22;;;;;;;0.77;0.50;;;24.60;99.90;;;;;;5045828;28;20216;-83
2022/06/21 11:52:03;;;;;;;0.70;0.60;;;24.80;99.90;;;;;;5044768;28;21031;-82
2022/06/21 11:54:55;;;;;;;0.43;0.43;;;24.60;99.90;;;;;;5046600;28;20219;-82
2022/06/21 11:57:41;;;;;;;0.83;0.63;;;25.40;99.90;;;;;;5046264;28;20214;-83
2022/06/21 12:00:15;;;;;;;0.53;0.50;;;25.60;99.90;;;;;;5044661;28;20220;-83
2022/06/21 12:03:00;;;;;;;0.70;0.70;;;24.90;99.90;;;;;;5048733;28;20185;-83
2022/06/21 12:05:33;;;;;;;1.07;0.70;;;24.90;99.90;;;;;;5044098;28;20189;-83
2022/06/21 12:08:23;;;;;;;0.90;0.90;;;25.40;99.90;;;;;;5039735;28;20205;-83
2022/06/21 12:11:11;;;;;;;0.70;0.70;;;24.90;99.90;;;;;;5046103;28;20548;-83
2022/06/21 12:13:55;;;;;;;0.87;0.73;;;25.60;99.90;;;;;;5044679;28;20269;-83
2022/06/21 12:16:30;;;;;;;0.60;0.60;;;25.10;99.90;;;;;;5042608;28;20205;-82
2022/06/21 12:19:07;;;;;;;1.00;0.90;;;24.70;99.90;;;;;;5043665;28;20181;-83
2022/06/21 12:21:43;;;;;;;1.00;0.60;;;24.70;99.90;;;;;;5047633;28;20185;-83
2022/06/21 12:24:16;;;;;;;4.70;0.80;;;24.70;99.90;;;;;;5045879;28;20196;-82
2022/06/21 12:26:43;;;;;;;0.90;0.67;;;25.10;99.90;;;;;;5045117;28;20631;-83
2022/06/21 12:29:14;;;;;;;0.63;0.63;;;25.00;99.90;;;;;;5041989;28;20205;-83
2022/06/21 12:31:44;;;;;;;5.30;1.60;;;25.30;99.90;;;;;;5042433;28;20194;-83
2022/06/21 12:34:15;;;;;;;0.87;0.70;;;25.60;99.90;;;;;;5045817;28;20182;-83
2022/06/21 12:36:50;;;;;;;0.50;0.50;;;26.40;99.90;;;;;;5040002;28;20255;-83
2022/06/21 12:39:48;;;;;;;0.30;0.30;;;26.10;99.90;;;;;;5044187;28;20472;-83
2022/06/21 12:42:23;;;;;;;0.50;0.50;;;26.80;99.90;;;;;;5046809;28;20182;-82
2022/06/21 12:44:58;;;;;;;1.30;1.10;;;26.20;99.90;;;;;;5046938;28;20296;-82
2022/06/21 12:48:01;;;;;;;0.30;0.30;;;26.50;99.90;;;;;;5045332;28;20228;-83
2022/06/21 12:50:54;;;;;;;0.70;0.70;;;26.40;99.90;;;;;;5045934;28;20182;-82
2022/06/21 12:53:32;;;;;;;0.40;0.40;;;26.30;99.90;;;;;;5042694;28;20182;-82
2022/06/21 12:56:31;;;;;;;0.50;0.50;;;26.50;99.90;;;;;;5039001;28;20209;-81
2022/06/21 12:59:34;;;;;;;0.40;0.40;;;27.00;99.90;;;;;;5045082;28;20802;-81
2022/06/21 13:02:31;;;;;;;1.60;0.70;;;26.50;99.90;;;;;;5046270;28;20182;-81
2022/06/21 13:05:11;;;;;;;0.50;0.50;;;26.20;99.90;;;;;;5046275;28;20188;-81
2022/06/21 13:07:46;;;;;;;0.63;0.63;;;25.80;99.90;;;;;;5045317;28;20670;-81
2022/06/21 13:10:42;;;;;;;1.17;1.17;;;26.30;99.90;;;;;;5045344;28;20189;-81
2022/06/21 13:13:32;;;;;;;0.30;0.30;;;26.00;99.90;;;;;;5045376;28;20197;-82
2022/06/21 13:16:15;;;;;;;0.87;0.80;;;25.70;99.90;;;;;;5042785;28;20212;-81
2022/06/21 13:19:31;;;;;;;0.93;0.67;;;25.60;99.90;;;;;;5045735;28;20220;-81
2022/06/21 13:22:01;;;;;;;0.60;0.60;;;25.60;99.90;;;;;;5016563;28;20667;-81
2022/06/21 13:24:34;;;;;;;1.07;0.70;;;25.80;99.90;;;;;;5044723;28;20246;-85
2022/06/21 13:27:10;;;;;;;0.70;0.70;;;26.30;99.90;;;;;;5046724;28;20209;-86
2022/06/21 13:30:11;;;;;;;0.70;0.70;;;26.20;99.90;;;;;;5046073;28;20204;-85
2022/06/21 13:33:14;;;;;;;0.40;0.40;;;26.20;99.90;;;;;;5045054;28;20185;-86
2022/06/21 13:35:52;;;;;;;0.30;0.30;;;26.30;99.90;;;;;;5047041;28;20602;-86
2022/06/21 13:38:35;;;;;;;0.43;0.43;;;26.30;99.90;;;;;;5045818;28;20244;-86
2022/06/21 13:44:33;;;;;;;0.67;0.67;;;26.40;99.90;;;;;;5046055;28;20262;-86
2022/06/21 13:47:05;;;;;;;0.40;0.40;;;25.70;99.90;;;;;;5043679;28;20777;-86
2022/06/21 13:49:41;;;;;;;0.60;0.60;;;25.60;99.90;;;;;;5045413;28;20189;-86
2022/06/21 13:52:24;;;;;;;0.40;0.40;;;26.00;99.90;;;;;;5044007;28;20185;-85
2022/06/21 13:54:58;;;;;;;1.60;0.50;;;26.60;99.90;;;;;;5044042;28;20235;-85
2022/06/21 13:57:52;;;;;;;0.67;0.67;;;26.20;99.90;;;;;;5039822;28;20205;-86
2022/06/21 14:00:30;;;;;;;0.83;0.63;;;25.70;99.90;;;;;;5043315;28;20182;-81
2022/06/21 14:03:14;;;;;;;0.50;0.50;;;26.10;99.90;;;;;;5043304;28;20244;-81
2022/06/21 14:06:19;;;;;;;1.13;0.90;;;26.20;99.90;;;;;;5045490;28;21361;-81